Time;durP1;ratioP1;P1;durP2;ratioP2;P2;SDS_P1;SDS_P2;PMS_P1;PMS_P2;Temp;Humidity;BMP_temperature;BMP_pressure;BME280_temperature;BME280_humidity;BME280_pressure;Samples;Min_cycle;Max_cycle;Signal;HPM_P1;HPM_P2
2023/03/27 00:01:21;;;;;;;3.90;2.20;;;;;;;7.76;71.47;99028.83;1708269;82;20996;-59
2023/03/27 00:03:52;;;;;;;5.30;2.22;;;;;;;7.77;71.51;99026.95;1757076;81;21036;-59
2023/03/27 00:06:23;;;;;;;5.58;2.80;;;;;;;7.75;71.52;99023.06;1721091;83;20982;-59
2023/03/27 00:08:52;;;;;;;3.77;2.70;;;;;;;7.69;71.54;99019.00;1721307;83;21018;-59
2023/03/27 00:11:23;;;;;;;6.33;2.90;;;;;;;7.66;71.68;99016.17;1721165;83;21082;-59
2023/03/27 00:13:54;;;;;;;3.95;2.45;;;;;;;7.63;71.77;99023.41;1721096;83;21023;-58
2023/03/27 00:16:25;;;;;;;4.72;2.70;;;;;;;7.63;71.93;99016.59;1721269;82;21062;-59
2023/03/27 00:18:59;;;;;;;6.10;2.70;;;;;;;7.63;72.00;99011.14;1721164;83;21027;-60
2023/03/27 00:21:30;;;;;;;4.65;2.50;;;;;;;7.63;72.01;99020.69;1721249;82;21039;-59
2023/03/27 00:23:59;;;;;;;4.80;2.85;;;;;;;7.63;72.01;99027.50;1721050;82;21512;-60
2023/03/27 00:26:29;;;;;;;3.62;2.20;;;;;;;7.61;72.03;99022.78;1721011;83;21027;-59
2023/03/27 00:28:59;;;;;;;5.22;2.42;;;;;;;7.58;72.16;99022.69;1721121;82;21481;-60
2023/03/27 00:31:28;;;;;;;4.30;2.37;;;;;;;7.57;72.22;99022.38;1721318;83;21054;-58
2023/03/27 00:33:58;;;;;;;4.55;2.30;;;;;;;7.53;72.17;99017.55;1721278;83;21109;-59
2023/03/27 00:36:26;;;;;;;5.05;2.50;;;;;;;7.48;72.41;99023.64;1721415;82;21054;-59
2023/03/27 00:38:56;;;;;;;4.92;2.70;;;;;;;7.44;72.56;99025.11;1721499;83;21438;-58
2023/03/27 00:41:25;;;;;;;5.47;2.25;;;;;;;7.42;72.76;99029.09;1721432;82;21018;-58
2023/03/27 00:43:55;;;;;;;5.62;2.75;;;;;;;7.40;72.92;99023.02;1721161;83;21434;-60
2023/03/27 00:46:35;;;;;;;4.83;2.50;;;;;;;7.39;72.97;99027.64;1721168;83;21455;-58
2023/03/27 00:49:06;;;;;;;3.60;2.27;;;;;;;7.40;73.12;99021.14;1719716;83;21502;-58
2023/03/27 00:51:36;;;;;;;3.20;2.15;;;;;;;7.41;73.12;99028.79;1721195;82;21039;-59
2023/03/27 00:54:06;;;;;;;5.08;2.47;;;;;;;7.39;73.10;99024.91;1721149;83;21540;-57
2023/03/27 00:56:37;;;;;;;4.30;2.65;;;;;;;7.36;73.15;99023.97;1721290;82;21030;-59
2023/03/27 00:59:11;;;;;;;7.25;3.00;;;;;;;7.37;73.10;99025.65;1721341;82;20986;-59
2023/03/27 01:01:41;;;;;;;5.97;2.37;;;;;;;7.34;73.20;99030.16;1721176;82;21091;-60
2023/03/27 01:04:12;;;;;;;3.47;2.25;;;;;;;7.30;73.17;99032.46;1715737;83;21114;-59
2023/03/27 01:06:42;;;;;;;3.62;2.00;;;;;;;7.27;73.31;99028.80;1715680;83;21423;-60
2023/03/27 01:09:11;;;;;;;5.67;2.20;;;;;;;7.23;73.47;99026.18;1716103;82;20995;-59
2023/03/27 01:11:47;;;;;;;4.80;2.25;;;;;;;7.22;73.61;99022.30;1715414;82;21066;-59
2023/03/27 01:14:40;;;;;;;3.67;2.08;;;;;;;7.22;73.62;99026.39;1751933;82;21075;-60
2023/03/27 01:17:29;;;;;;;3.52;2.20;;;;;;;7.23;73.65;99038.96;1716081;83;21392;-58
2023/03/27 01:20:46;;;;;;;4.33;1.90;;;;;;;7.20;73.61;99028.48;1715994;83;21047;-60
2023/03/27 01:23:36;;;;;;;4.45;2.00;;;;;;;7.20;73.70;99029.84;1751800;82;20992;-59
2023/03/27 01:26:56;;;;;;;2.80;1.80;;;;;;;7.20;73.77;99029.32;1749320;81;21047;-59
2023/03/27 01:29:40;;;;;;;3.02;2.20;;;;;;;7.19;73.78;99033.09;1751666;81;20992;-60
2023/03/27 01:32:40;;;;;;;5.45;2.47;;;;;;;7.14;73.78;99038.30;1751765;80;21078;-58
2023/03/27 01:35:54;;;;;;;11.48;2.75;;;;;;;7.13;73.91;99031.17;1752080;81;21106;-58
2023/03/27 01:39:04;;;;;;;6.30;3.15;;;;;;;7.13;73.82;99031.17;1736665;81;21063;-59
2023/03/27 01:41:49;;;;;;;9.40;4.35;;;;;;;7.10;73.83;99027.51;1751755;82;21020;-59
2023/03/27 01:44:44;;;;;;;7.85;4.05;;;;;;;7.08;73.94;99028.77;1751725;81;21167;-59
2023/03/27 01:47:37;;;;;;;5.72;3.12;;;;;;;7.07;73.94;99032.53;1742553;82;21075;-59
2023/03/27 01:50:35;;;;;;;8.58;2.92;;;;;;;7.06;73.91;99033.58;1751948;82;21036;-59
2023/03/27 01:53:30;;;;;;;6.00;2.52;;;;;;;7.05;73.94;99030.02;1716245;82;21121;-59
2023/03/27 01:56:04;;;;;;;5.22;2.50;;;;;;;6.97;73.97;99025.61;1715805;82;21463;-58
2023/03/27 01:58:40;;;;;;;4.42;2.67;;;;;;;6.89;74.20;99021.73;1715412;82;21027;-59
2023/03/27 02:01:09;;;;;;;4.47;2.20;;;;;;;6.87;74.32;99013.46;1751844;82;21039;-57
2023/03/27 02:03:41;;;;;;;5.22;2.55;;;;;;;6.88;74.45;99019.22;1747161;82;21064;-60
2023/03/27 02:06:24;;;;;;;3.33;2.00;;;;;;;6.90;74.49;99017.13;1712409;84;20984;-59
2023/03/27 02:09:04;;;;;;;4.50;2.35;;;;;;;6.88;74.55;99013.25;1711002;84;21075;-59
2023/03/27 02:11:43;;;;;;;5.10;2.37;;;;;;;6.90;74.55;99022.57;1711323;84;21015;-59
2023/03/27 02:14:18;;;;;;;5.05;3.08;;;;;;;6.89;74.48;99029.06;1709697;82;21485;-58
2023/03/27 02:16:53;;;;;;;6.70;3.10;;;;;;;6.88;74.43;99032.83;1708355;84;21060;-59
2023/03/27 02:19:33;;;;;;;4.92;2.72;;;;;;;6.82;74.40;99034.50;1744012;81;21048;-58
2023/03/27 02:22:02;;;;;;;4.58;2.15;;;;;;;6.79;74.40;99036.27;1708266;84;21050;-58
2023/03/27 02:24:33;;;;;;;4.10;2.30;;;;;;;6.75;74.51;99038.26;1707377;82;21487;-60
2023/03/27 02:27:16;;;;;;;3.67;1.98;;;;;;;6.72;74.67;99041.39;1708186;84;21011;-59
2023/03/27 02:29:57;;;;;;;3.70;2.42;;;;;;;6.70;74.81;99038.03;1743485;81;21016;-59
2023/03/27 02:32:54;;;;;;;4.60;2.58;;;;;;;6.65;74.87;99044.09;1743835;82;21456;-59
2023/03/27 02:35:54;;;;;;;3.70;2.27;;;;;;;6.63;74.99;99047.55;1708374;82;21044;-59
2023/03/27 02:38:38;;;;;;;6.33;2.80;;;;;;;6.61;75.11;99034.67;1743970;82;21036;-59
2023/03/27 02:41:35;;;;;;;4.70;2.40;;;;;;;6.59;75.28;99046.28;1744028;81;21028;-59
2023/03/27 02:44:31;;;;;;;4.60;2.08;;;;;;;6.56;75.26;99046.17;1708106;82;21082;-59
2023/03/27 02:47:29;;;;;;;5.15;2.30;;;;;;;6.50;75.32;99054.28;1743772;82;21055;-58
2023/03/27 02:50:05;;;;;;;4.47;2.40;;;;;;;6.47;75.43;99066.41;1743436;82;21059;-58
2023/03/27 02:52:45;;;;;;;4.20;2.45;;;;;;;6.44;75.43;99065.98;1743472;81;21020;-58
2023/03/27 02:55:25;;;;;;;3.92;2.15;;;;;;;6.43;75.60;99075.19;1743723;81;21092;-59
2023/03/27 02:57:58;;;;;;;5.80;2.40;;;;;;;6.42;75.61;99085.23;1708111;82;21007;-59
2023/03/27 03:00:32;;;;;;;7.10;3.30;;;;;;;6.36;75.55;99093.68;1707115;82;21083;-58
2023/03/27 03:03:26;;;;;;;6.40;3.40;;;;;;;6.29;75.65;99093.33;1701430;81;21604;-58
2023/03/27 03:05:55;;;;;;;6.30;2.95;;;;;;;6.24;75.99;99093.94;1756932;81;21448;-59
2023/03/27 03:08:29;;;;;;;8.23;3.12;;;;;;;6.22;76.15;99100.63;1721161;82;21443;-58
2023/03/27 03:11:04;;;;;;;6.12;2.67;;;;;;;6.21;76.25;99103.02;1695804;83;21478;-58
2023/03/27 03:13:36;;;;;;;5.17;3.08;;;;;;;6.21;76.39;99105.22;1695237;83;21030;-59
2023/03/27 03:16:07;;;;;;;7.92;3.55;;;;;;;6.22;76.56;99101.98;1721409;83;21090;-59
2023/03/27 03:18:36;;;;;;;6.03;3.20;;;;;;;6.21;76.61;99098.95;1721045;82;21026;-58
2023/03/27 03:21:06;;;;;;;4.35;2.30;;;;;;;6.25;76.66;99107.02;1721323;83;21170;-58
2023/03/27 03:23:34;;;;;;;4.45;2.35;;;;;;;6.23;76.62;99105.02;1721120;83;21022;-59
2023/03/27 03:26:05;;;;;;;6.08;2.50;;;;;;;6.24;76.72;99109.42;1721112;82;21079;-59
2023/03/27 03:28:36;;;;;;;3.92;1.92;;;;;;;6.26;76.81;99108.70;1719735;83;21435;-60
2023/03/27 03:31:05;;;;;;;4.17;2.42;;;;;;;6.27;76.89;99105.77;1720857;82;21014;-59
2023/03/27 03:33:35;;;;;;;3.55;2.27;;;;;;;6.27;76.91;99100.34;1721366;82;21520;-58
2023/03/27 03:36:05;;;;;;;3.50;1.98;;;;;;;6.30;76.94;99108.61;1721290;83;21527;-59
2023/03/27 03:38:37;;;;;;;4.90;2.10;;;;;;;6.31;76.83;99100.77;1721122;83;21428;-59
2023/03/27 03:41:08;;;;;;;4.35;2.50;;;;;;;6.32;76.83;99101.09;1720336;83;21022;-58
2023/03/27 03:43:36;;;;;;;4.17;2.20;;;;;;;6.33;76.63;99102.77;1721231;82;21014;-60
2023/03/27 03:46:08;;;;;;;5.30;2.30;;;;;;;6.30;76.59;99097.73;1721069;83;21074;-60
2023/03/27 03:48:37;;;;;;;5.00;2.30;;;;;;;6.32;76.71;99102.45;1721213;82;21105;-58
2023/03/27 03:51:07;;;;;;;3.45;2.02;;;;;;;6.31;76.70;99097.53;1721146;82;21423;-58
2023/03/27 03:53:36;;;;;;;6.85;2.80;;;;;;;6.33;76.69;99102.77;1721185;83;21046;-59
2023/03/27 03:56:05;;;;;;;4.40;2.30;;;;;;;6.33;76.59;99104.97;1721379;83;21030;-59
2023/03/27 03:58:35;;;;;;;5.55;2.92;;;;;;;6.28;76.47;99104.73;1721065;83;21314;-58
2023/03/27 04:01:05;;;;;;;7.62;3.00;;;;;;;6.26;76.45;99108.70;1721011;83;21422;-59
2023/03/27 04:03:37;;;;;;;6.55;3.08;;;;;;;6.17;76.39;99109.91;1691525;83;21446;-58
2023/03/27 04:06:09;;;;;;;6.33;3.30;;;;;;;6.09;76.45;99108.70;1715698;82;21031;-58
2023/03/27 04:08:38;;;;;;;9.18;3.85;;;;;;;6.05;76.55;99116.43;1715799;82;21058;-58
2023/03/27 04:11:15;;;;;;;11.60;3.35;;;;;;;6.01;76.68;99120.06;1712343;83;20991;-64
2023/03/27 04:13:55;;;;;;;11.48;5.50;;;;;;;5.92;76.68;99114.47;1750130;81;21068;-59
2023/03/27 04:16:28;;;;;;;13.80;6.28;;;;;;;5.81;76.97;99114.95;1750910;81;21020;-59
2023/03/27 04:18:59;;;;;;;12.98;6.30;;;;;;;5.78;77.33;99123.51;1733005;82;21471;-59
2023/03/27 04:21:28;;;;;;;17.20;7.42;;;;;;;5.77;77.45;99125.91;1687730;83;21023;-59
2023/03/27 04:24:01;;;;;;;20.50;7.08;;;;;;;5.74;77.58;99127.66;1715792;82;20987;-60
2023/03/27 04:26:32;;;;;;;17.70;6.47;;;;;;;5.68;77.72;99123.86;1714153;83;21015;-61
2023/03/27 04:29:09;;;;;;;8.25;4.05;;;;;;;5.64;78.04;99125.80;1744531;81;21043;-58
2023/03/27 04:31:45;;;;;;;14.35;5.08;;;;;;;5.69;78.54;99126.05;1729427;81;21481;-59
2023/03/27 04:34:19;;;;;;;6.87;3.72;;;;;;;5.74;78.81;99124.42;1749303;82;21075;-59
2023/03/27 04:36:51;;;;;;;7.47;3.62;;;;;;;5.82;78.89;99125.31;1741812;82;21499;-58
2023/03/27 04:39:23;;;;;;;7.42;4.08;;;;;;;5.88;78.96;99131.34;1751903;81;21537;-59
2023/03/27 04:41:52;;;;;;;8.43;4.25;;;;;;;5.96;79.03;99128.50;1751965;82;21032;-58
2023/03/27 04:44:21;;;;;;;6.30;3.37;;;;;;;6.00;78.83;99125.19;1751904;81;21012;-59
2023/03/27 04:46:50;;;;;;;8.18;3.50;;;;;;;6.02;78.79;99131.27;1687591;83;21051;-59
2023/03/27 04:49:19;;;;;;;8.73;3.20;;;;;;;6.07;78.89;99125.75;1751994;82;21447;-59
2023/03/27 04:51:50;;;;;;;10.78;3.47;;;;;;;6.12;78.92;99122.74;1715527;82;21011;-60
2023/03/27 04:54:25;;;;;;;7.70;3.75;;;;;;;6.22;78.89;99130.02;1751748;81;21477;-59
2023/03/27 04:56:54;;;;;;;9.10;3.80;;;;;;;6.27;78.71;99129.41;1751786;82;20980;-59
2023/03/27 04:59:25;;;;;;;14.75;4.55;;;;;;;6.30;78.58;99123.57;1751809;81;21059;-59
2023/03/27 05:02:05;;;;;;;10.03;4.90;;;;;;;6.34;78.57;99128.92;1748968;82;21055;-60
2023/03/27 05:04:38;;;;;;;9.23;4.25;;;;;;;6.41;78.46;99126.23;1745743;81;21016;-60
2023/03/27 05:07:12;;;;;;;9.73;3.67;;;;;;;6.47;78.34;99131.70;1743792;81;21048;-59
2023/03/27 05:09:44;;;;;;;9.38;4.00;;;;;;;6.53;78.19;99135.01;1743774;82;21640;-59
2023/03/27 05:12:13;;;;;;;17.50;4.95;;;;;;;6.60;78.10;99137.76;1708241;82;21051;-59
2023/03/27 05:14:47;;;;;;;12.47;4.42;;;;;;;6.66;77.92;99138.31;1707576;84;21090;-59
2023/03/27 05:17:17;;;;;;;16.97;7.37;;;;;;;6.73;77.86;99135.61;1706314;82;21020;-58
2023/03/27 05:19:49;;;;;;;10.82;4.75;;;;;;;6.81;77.71;99134.91;1707953;84;21098;-60
2023/03/27 05:22:19;;;;;;;9.30;3.85;;;;;;;6.88;77.51;99140.37;1708264;82;21062;-60
2023/03/27 05:24:50;;;;;;;8.13;3.65;;;;;;;6.96;77.32;99137.46;1707776;84;21027;-60
2023/03/27 05:27:20;;;;;;;8.68;3.85;;;;;;;7.03;77.17;99132.03;1743796;82;21444;-59
2023/03/27 05:29:51;;;;;;;9.33;4.10;;;;;;;7.09;76.95;99132.56;1743737;81;21051;-60
2023/03/27 05:32:20;;;;;;;20.92;5.90;;;;;;;7.17;76.77;99130.52;1708380;84;21043;-59
2023/03/27 05:34:56;;;;;;;16.67;5.20;;;;;;;7.25;76.57;99139.86;1708112;82;21051;-59
2023/03/27 05:37:26;;;;;;;10.48;4.40;;;;;;;7.33;76.34;99139.34;1708156;84;21059;-60
2023/03/27 05:40:15;;;;;;;6.83;3.80;;;;;;;7.40;76.17;99141.03;1742794;81;21028;-62
2023/03/27 05:42:45;;;;;;;7.53;3.65;;;;;;;7.46;75.87;99140.20;1743889;81;21131;-59
2023/03/27 05:45:14;;;;;;;6.37;2.75;;;;;;;7.52;75.59;99147.53;1709742;82;21113;-60
2023/03/27 05:47:56;;;;;;;5.20;2.60;;;;;;;7.58;75.33;99142.61;1710827;84;21027;-59
2023/03/27 05:50:35;;;;;;;10.82;3.15;;;;;;;7.65;75.03;99142.61;1711616;82;20984;-60
2023/03/27 05:53:08;;;;;;;6.42;3.00;;;;;;;7.74;74.80;99141.35;1711185;82;21090;-60
2023/03/27 05:55:42;;;;;;;8.30;3.30;;;;;;;7.83;74.56;99139.28;1710898;84;21339;-59
2023/03/27 05:58:13;;;;;;;6.72;3.52;;;;;;;7.88;74.15;99133.50;1708965;84;21047;-61
2023/03/27 06:00:43;;;;;;;6.00;2.95;;;;;;;7.91;73.80;99133.08;1708592;82;21035;-62
2023/03/27 06:03:14;;;;;;;5.17;2.75;;;;;;;7.97;73.62;99130.03;1707976;82;21007;-60
2023/03/27 06:06:10;;;;;;;11.25;3.42;;;;;;;8.05;73.35;99137.99;1708523;84;21447;-61
2023/03/27 06:08:40;;;;;;;7.55;3.90;;;;;;;8.11;73.21;99139.03;1686931;84;21024;-59
2023/03/27 06:11:13;;;;;;;7.72;3.80;;;;;;;8.18;73.08;99143.95;1708140;82;21067;-61
2023/03/27 06:13:50;;;;;;;9.15;4.12;;;;;;;8.24;72.98;99145.82;1708047;82;21067;-61
2023/03/27 06:16:21;;;;;;;10.53;4.17;;;;;;;8.31;72.84;99147.17;1743728;81;21084;-60
2023/03/27 06:18:59;;;;;;;12.95;4.33;;;;;;;8.35;72.49;99149.29;1706439;82;21027;-60
2023/03/27 06:21:29;;;;;;;9.00;4.15;;;;;;;8.38;72.06;99146.13;1708142;82;21039;-60
2023/03/27 06:24:01;;;;;;;9.43;3.58;;;;;;;8.41;71.78;99145.70;1708245;84;21043;-60
2023/03/27 06:26:31;;;;;;;7.37;3.72;;;;;;;8.41;71.60;99140.25;1743463;81;21028;-59
2023/03/27 06:29:03;;;;;;;15.40;4.28;;;;;;;8.46;71.56;99147.30;1708520;82;21027;-61
2023/03/27 06:31:35;;;;;;;18.60;4.87;;;;;;;8.50;71.62;99143.08;1708230;82;21440;-59
2023/03/27 06:34:13;;;;;;;19.92;4.70;;;;;;;8.55;71.51;99141.07;1743491;81;21099;-60
2023/03/27 06:36:45;;;;;;;11.30;4.12;;;;;;;8.63;71.41;99139.47;1707071;82;21458;-59
2023/03/27 06:39:16;;;;;;;9.40;3.52;;;;;;;8.72;71.29;99142.27;1743933;81;21068;-59
2023/03/27 06:41:55;;;;;;;9.65;3.83;;;;;;;8.82;71.06;99144.53;1708395;84;21439;-62
2023/03/27 06:44:32;;;;;;;14.58;3.58;;;;;;;8.92;70.86;99139.44;1664612;84;21094;-58
2023/03/27 06:47:01;;;;;;;7.58;3.42;;;;;;;9.04;70.52;99143.16;1664737;84;21549;-61
2023/03/27 06:49:35;;;;;;;7.28;3.40;;;;;;;9.16;70.28;99144.69;1659273;85;21515;-60
2023/03/27 06:52:07;;;;;;;9.68;3.58;;;;;;;9.29;70.05;99135.05;1664521;84;21054;-60
2023/03/27 06:54:37;;;;;;;11.10;3.67;;;;;;;9.42;69.70;99142.31;1664658;84;21505;-60
2023/03/27 06:57:06;;;;;;;6.12;2.72;;;;;;;9.54;69.16;99137.81;1664819;85;21118;-62
2023/03/27 06:59:41;;;;;;;9.38;3.58;;;;;;;9.67;68.78;99138.23;1664542;85;21611;-59
2023/03/27 07:02:11;;;;;;;8.63;3.50;;;;;;;9.77;68.48;99147.64;1664850;86;21067;-59
2023/03/27 07:04:57;;;;;;;6.67;3.40;;;;;;;9.93;67.82;99139.94;1829830;77;22148;-59
2023/03/27 07:07:37;;;;;;;7.33;3.00;;;;;;;9.96;67.43;99144.95;1787781;79;21548;-60
2023/03/27 07:10:09;;;;;;;9.05;3.12;;;;;;;10.03;66.73;99145.73;1788382;79;21194;-61
2023/03/27 07:12:47;;;;;;;7.92;3.00;;;;;;;10.12;66.49;99143.02;1788467;80;21131;-61
2023/03/27 07:15:17;;;;;;;9.03;2.80;;;;;;;10.18;66.48;99138.84;1788717;80;21146;-61
2023/03/27 07:17:55;;;;;;;7.50;1.87;;;;;;;10.28;65.66;99140.25;1768718;80;21118;-60
2023/03/27 07:20:26;;;;;;;5.25;2.08;;;;;;;10.35;65.12;99135.01;1788394;80;21119;-61
2023/03/27 07:22:58;;;;;;;3.30;1.70;;;;;;;10.45;64.63;99138.09;1768651;80;21107;-61
2023/03/27 07:25:36;;;;;;;3.95;1.98;;;;;;;10.52;63.70;99139.91;1773092;80;21134;-59
2023/03/27 07:28:08;;;;;;;8.05;2.45;;;;;;;10.55;63.05;99138.92;1788613;80;21130;-60
2023/03/27 07:30:37;;;;;;;6.67;2.37;;;;;;;10.57;63.08;99138.16;1788671;80;21134;-63
2023/03/27 07:33:11;;;;;;;6.65;3.25;;;;;;;10.63;63.14;99136.41;1704833;84;21178;-60
2023/03/27 07:35:44;;;;;;;3.77;2.42;;;;;;;10.70;62.87;99135.80;1704858;84;21170;-60
2023/03/27 07:38:28;;;;;;;5.62;2.10;;;;;;;10.78;62.51;99138.22;1636805;84;21627;-60
2023/03/27 07:41:05;;;;;;;5.83;1.98;;;;;;;10.86;62.10;99142.55;1700500;83;21222;-61
2023/03/27 07:43:31;;;;;;;4.33;2.22;;;;;;;10.94;61.89;99144.44;1634756;88;21217;-61
2023/03/27 07:46:01;;;;;;;7.08;2.50;;;;;;;11.01;61.54;99138.34;1704832;84;21162;-60
2023/03/27 07:48:31;;;;;;;16.32;4.00;;;;;;;11.09;61.07;99134.47;1704680;84;21178;-61
2023/03/27 07:51:02;;;;;;;7.03;2.40;;;;;;;11.18;61.05;99139.93;1737673;80;21119;-61
2023/03/27 07:53:34;;;;;;;7.20;2.45;;;;;;;11.26;60.69;99138.77;1767656;80;21071;-60
2023/03/27 07:56:07;;;;;;;9.88;2.50;;;;;;;11.37;60.31;99140.71;1787445;80;21119;-61
2023/03/27 07:58:37;;;;;;;6.87;2.00;;;;;;;11.49;59.81;99132.52;1788535;80;21174;-61
2023/03/27 08:01:07;;;;;;;6.28;1.92;;;;;;;11.69;59.17;99132.50;1788520;80;21087;-61
2023/03/27 08:03:37;;;;;;;4.60;1.80;;;;;;;12.01;58.18;99132.23;1774388;79;21152;-63
2023/03/27 08:06:07;;;;;;;3.37;1.90;;;;;;;12.37;57.38;99129.27;1744134;81;21153;-63
2023/03/27 08:08:36;;;;;;;3.87;2.12;;;;;;;12.73;56.43;99134.16;1744160;81;21113;-63
2023/03/27 08:11:06;;;;;;;5.35;2.45;;;;;;;13.06;55.36;99135.41;1744255;81;21141;-64
2023/03/27 08:13:39;;;;;;;6.72;2.90;;;;;;;13.40;54.72;99141.87;1743762;81;21145;-63
2023/03/27 08:16:14;;;;;;;7.50;2.80;;;;;;;13.71;53.24;99135.02;1743617;81;21625;-64
2023/03/27 08:18:45;;;;;;;13.55;4.37;;;;;;;14.01;52.76;99131.94;1701498;83;21562;-62
2023/03/27 08:21:14;;;;;;;13.10;3.50;;;;;;;14.29;52.59;99127.15;1701761;83;22378;-63
2023/03/27 08:23:46;;;;;;;4.70;2.65;;;;;;;14.67;51.17;99131.59;1701752;84;21127;-63
2023/03/27 08:26:32;;;;;;;4.97;2.52;;;;;;;15.00;50.80;99135.62;1696071;84;21154;-63
2023/03/27 08:29:04;;;;;;;8.40;2.77;;;;;;;15.37;49.90;99134.39;1701167;83;21209;-62
2023/03/27 08:31:34;;;;;;;5.45;2.40;;;;;;;15.66;48.86;99131.42;1701841;83;21610;-65
2023/03/27 08:34:05;;;;;;;4.30;2.20;;;;;;;15.87;47.69;99131.89;1701697;84;21162;-64
2023/03/27 08:36:37;;;;;;;3.83;2.27;;;;;;;16.10;46.56;99130.69;1716075;82;21131;-63
2023/03/27 08:39:07;;;;;;;5.47;2.40;;;;;;;16.39;46.15;99134.80;1743696;82;21125;-64
2023/03/27 08:41:53;;;;;;;6.30;2.15;;;;;;;16.63;45.63;99127.47;1751328;79;21214;-63
2023/03/27 08:44:25;;;;;;;4.65;1.90;;;;;;;16.83;45.02;99122.62;1746619;80;21234;-63
2023/03/27 08:47:06;;;;;;;4.12;2.00;;;;;;;17.06;44.19;99118.03;1772848;81;21108;-63
2023/03/27 08:49:46;;;;;;;4.05;2.17;;;;;;;17.20;41.99;99121.12;1760710;80;21566;-63
2023/03/27 08:52:27;;;;;;;7.50;3.00;;;;;;;17.17;42.58;99124.44;1733003;81;21166;-64
2023/03/27 08:55:13;;;;;;;5.08;2.58;;;;;;;17.18;43.00;99128.88;1732987;83;21570;-63
2023/03/27 08:57:43;;;;;;;3.08;1.67;;;;;;;17.14;42.29;99120.83;1734067;82;21151;-63
2023/03/27 09:00:22;;;;;;;4.72;2.00;;;;;;;17.05;42.55;99115.82;1743875;82;21144;-63
2023/03/27 09:03:20;;;;;;;4.42;1.92;;;;;;;17.02;42.20;99118.30;1744168;81;21084;-64
2023/03/27 09:06:11;;;;;;;4.20;1.67;;;;;;;16.90;42.09;99117.67;1697129;84;21172;-63
2023/03/27 09:09:05;;;;;;;4.05;1.95;;;;;;;16.68;42.75;99112.31;1680813;84;21200;-62
2023/03/27 09:11:54;;;;;;;6.40;1.85;;;;;;;16.54;42.74;99109.72;1681374;85;21144;-63
2023/03/27 09:14:36;;;;;;;4.53;1.82;;;;;;;16.40;43.08;99101.08;1681022;84;21176;-63
2023/03/27 09:17:31;;;;;;;4.87;1.92;;;;;;;16.23;43.33;99101.22;1732713;82;21257;-63
2023/03/27 09:20:20;;;;;;;3.45;2.17;;;;;;;16.12;43.34;99105.84;1742925;81;21112;-63
2023/03/27 09:22:55;;;;;;;3.83;1.80;;;;;;;16.01;43.22;99111.01;1743244;82;21167;-61
2023/03/27 09:25:34;;;;;;;3.10;1.77;;;;;;;15.89;43.56;99108.14;1709373;81;21147;-64
2023/03/27 09:28:14;;;;;;;3.22;1.72;;;;;;;15.78;43.56;99104.47;1717688;82;21159;-64
2023/03/27 09:30:48;;;;;;;4.20;1.80;;;;;;;15.68;42.94;99107.14;1746515;81;21095;-62
2023/03/27 09:33:19;;;;;;;2.30;1.50;;;;;;;15.52;42.91;99102.80;1745511;81;21131;-64
2023/03/27 09:35:50;;;;;;;3.33;1.47;;;;;;;15.36;43.35;99105.12;1745319;81;21667;-62
2023/03/27 09:38:34;;;;;;;5.03;1.90;;;;;;;15.24;43.81;99105.83;1743626;81;21159;-63
2023/03/27 09:41:09;;;;;;;3.37;1.40;;;;;;;15.22;43.75;99096.98;1743744;82;21104;-62
2023/03/27 09:43:43;;;;;;;2.83;1.20;;;;;;;15.25;43.96;99096.45;1770654;79;21175;-62
2023/03/27 09:46:16;;;;;;;3.77;1.47;;;;;;;15.19;44.01;99099.70;1774104;81;21107;-63
2023/03/27 09:48:53;;;;;;;3.27;1.40;;;;;;;15.17;44.09;99095.55;1772091;80;21096;-61
2023/03/27 09:51:40;;;;;;;3.20;1.35;;;;;;;15.14;44.46;99089.16;1742890;81;21114;-62
2023/03/27 09:54:23;;;;;;;2.40;1.20;;;;;;;15.11;43.92;99093.28;1743357;81;21567;-63
2023/03/27 09:57:09;;;;;;;3.58;1.07;;;;;;;15.06;44.00;99080.80;1731860;81;21194;-60
2023/03/27 09:59:43;;;;;;;4.30;1.30;;;;;;;15.05;43.72;99086.58;1757798;81;21613;-62
2023/03/27 10:02:26;;;;;;;4.20;1.20;;;;;;;14.99;43.45;99086.23;1733630;82;21532;-62
2023/03/27 10:05:02;;;;;;;2.02;1.10;;;;;;;14.90;43.41;99098.24;1751851;81;21550;-63
2023/03/27 10:07:33;;;;;;;2.65;1.02;;;;;;;14.80;43.77;99091.23;1756623;82;21579;-63
2023/03/27 10:10:21;;;;;;;5.65;1.50;;;;;;;14.71;44.03;99086.70;1756955;82;21178;-62
2023/03/27 10:13:09;;;;;;;4.37;1.32;;;;;;;14.66;44.24;99085.27;1756642;81;21079;-63
2023/03/27 10:15:43;;;;;;;3.35;1.50;;;;;;;14.66;44.43;99086.64;1757032;80;21170;-62
2023/03/27 10:18:28;;;;;;;6.90;2.33;;;;;;;14.65;44.37;99085.52;1756078;81;21570;-62
2023/03/27 10:21:12;;;;;;;7.60;1.65;;;;;;;14.61;44.44;99089.34;1756350;81;21111;-64
2023/03/27 10:23:48;;;;;;;9.43;1.90;;;;;;;14.59;44.36;99090.14;1757003;82;21194;-62
2023/03/27 10:26:27;;;;;;;5.55;1.30;;;;;;;14.56;44.15;99089.27;1755619;81;21170;-64
2023/03/27 10:29:07;;;;;;;2.30;1.20;;;;;;;14.51;44.26;99084.53;1756991;82;21138;-64
2023/03/27 10:31:38;;;;;;;4.22;1.40;;;;;;;14.50;44.35;99082.86;1740220;82;21593;-63
2023/03/27 10:34:38;;;;;;;3.90;1.70;;;;;;;14.54;44.28;99085.94;1710772;80;21531;-61
2023/03/27 10:37:33;;;;;;;3.40;1.40;;;;;;;14.59;44.12;99083.25;1756825;82;21543;-63
2023/03/27 10:40:25;;;;;;;5.42;1.37;;;;;;;14.66;44.05;99088.02;1727813;81;21107;-62
2023/03/27 10:43:01;;;;;;;4.47;1.40;;;;;;;14.68;44.01;99074.81;1756122;80;21141;-63
2023/03/27 10:45:30;;;;;;;3.33;1.17;;;;;;;14.75;44.04;99071.86;1756737;80;21315;-64
2023/03/27 10:48:01;;;;;;;2.45;1.20;;;;;;;14.85;43.88;99074.20;1765934;79;21113;-62
2023/03/27 10:50:41;;;;;;;5.78;1.85;;;;;;;14.95;43.63;99062.45;1811508;79;21616;-62
2023/03/27 10:53:36;;;;;;;2.87;1.20;;;;;;;15.03;43.24;99077.73;1751296;82;21178;-63
2023/03/27 10:56:57;;;;;;;5.62;1.50;;;;;;;15.12;42.91;99072.87;1751198;82;21239;-64
2023/03/27 10:59:46;;;;;;;3.77;1.35;;;;;;;15.16;42.82;99064.91;1751214;82;21150;-61
2023/03/27 11:02:24;;;;;;;11.33;1.47;;;;;;;15.21;42.91;99051.16;1710667;82;21151;-63
2023/03/27 11:04:58;;;;;;;2.62;1.40;;;;;;;15.25;42.66;99057.83;1761641;81;21131;-62
2023/03/27 11:07:49;;;;;;;3.52;1.42;;;;;;;15.25;42.00;99057.83;1713395;82;21175;-64
2023/03/27 11:10:30;;;;;;;4.70;1.47;;;;;;;15.25;41.99;99047.33;1811341;79;21186;-62
2023/03/27 11:13:05;;;;;;;2.52;1.30;;;;;;;15.28;42.33;99049.57;1811572;79;21588;-60
2023/03/27 11:15:49;;;;;;;4.10;1.35;;;;;;;15.31;41.47;99039.39;1742774;82;21123;-63
2023/03/27 11:18:38;;;;;;;3.45;1.20;;;;;;;15.31;41.65;99041.60;1805782;79;21146;-64
2023/03/27 11:21:13;;;;;;;2.90;1.10;;;;;;;15.29;41.97;99031.92;1811496;79;21178;-64
2023/03/27 11:23:56;;;;;;;2.95;1.30;;;;;;;15.32;42.26;99036.37;1740102;82;21151;-62
2023/03/27 11:26:32;;;;;;;3.98;1.40;;;;;;;15.35;41.84;99035.84;1742687;82;21535;-62
2023/03/27 11:29:10;;;;;;;3.72;1.40;;;;;;;15.35;41.70;99026.73;1742720;82;21100;-62
2023/03/27 11:31:48;;;;;;;2.12;1.15;;;;;;;15.33;42.08;99030.30;1742135;82;21155;-62
2023/03/27 11:34:51;;;;;;;2.85;1.47;;;;;;;15.34;41.28;99027.83;1810325;79;21135;-64
2023/03/27 11:37:58;;;;;;;2.62;1.57;;;;;;;15.32;41.35;99023.95;1809784;79;21543;-62
2023/03/27 11:40:46;;;;;;;3.70;1.40;;;;;;;15.36;41.51;99025.09;1742557;82;21134;-64
2023/03/27 11:43:20;;;;;;;3.00;1.30;;;;;;;15.35;41.00;99027.56;1651596;86;21236;-64
2023/03/27 11:46:12;;;;;;;3.52;1.22;;;;;;;15.32;41.22;99028.09;1690063;84;21135;-63
2023/03/27 11:49:27;;;;;;;5.45;1.55;;;;;;;15.24;41.45;99021.67;1675510;84;21547;-63
2023/03/27 11:52:02;;;;;;;3.58;1.27;;;;;;;15.18;41.69;99024.92;1699329;84;21223;-60
2023/03/27 11:55:05;;;;;;;1.90;1.10;;;;;;;15.14;41.67;99032.61;1632085;88;21216;-63
2023/03/27 11:58:07;;;;;;;2.05;1.17;;;;;;;15.13;41.48;99035.91;1631422;88;21659;-63
2023/03/27 12:01:06;;;;;;;4.08;1.20;;;;;;;15.12;40.69;99027.90;1650234;83;21559;-61
2023/03/27 12:03:43;;;;;;;2.98;1.07;;;;;;;15.09;40.80;99030.63;1721156;83;21567;-62
2023/03/27 12:06:21;;;;;;;5.90;2.33;;;;;;;15.05;41.10;99023.14;1713555;83;21546;-64
2023/03/27 12:09:36;;;;;;;6.65;2.08;;;;;;;15.01;41.11;99015.92;1713753;84;21130;-63
2023/03/27 12:12:46;;;;;;;2.67;1.40;;;;;;;15.00;41.32;99009.30;1733948;80;21395;-63
2023/03/27 12:15:32;;;;;;;2.62;1.65;;;;;;;15.00;41.35;99011.50;1779775;80;21150;-63
2023/03/27 12:18:26;;;;;;;6.35;1.20;;;;;;;15.01;41.41;99008.20;1779823;80;21126;-63
2023/03/27 12:21:23;;;;;;;3.45;1.20;;;;;;;15.04;41.24;98998.02;1754788;80;21534;-62
2023/03/27 12:24:22;;;;;;;3.33;1.27;;;;;;;15.07;41.27;99006.61;1779066;80;21165;-63
2023/03/27 12:27:27;;;;;;;13.85;8.23;;;;;;;15.14;41.05;99002.27;1779724;80;21170;-63